Time;durP1;ratioP1;P1;durP2;ratioP2;P2;SDS_P1;SDS_P2;PMS_P1;PMS_P2;Temp;Humidity;BMP_temperature;BMP_pressure;BME280_temperature;BME280_humidity;BME280_pressure;Samples;Min_cycle;Max_cycle;Signal;HPM_P1;HPM_P2
2022/12/02 00:01:20;;;;;;;61.10;39.53;;;3.40;99.90;;;;;;4979176;28;87642;-32
2022/12/02 00:03:46;;;;;;;63.92;40.33;;;3.50;99.90;;;;;;4979793;28;87998;-33
2022/12/02 00:06:27;;;;;;;66.30;39.53;;;3.50;99.90;;;;;;4979221;28;91732;-33
2022/12/02 00:08:57;;;;;;;63.47;37.30;;;3.60;99.90;;;;;;4981116;28;89576;-31
2022/12/02 00:11:28;;;;;;;69.47;42.42;;;3.60;99.90;;;;;;4982872;28;89304;-33
2022/12/02 00:13:59;;;;;;;66.88;39.13;;;3.60;99.90;;;;;;4983090;28;89226;-31
2022/12/02 00:16:25;;;;;;;64.65;35.60;;;3.60;99.90;;;;;;4982678;28;90241;-34
2022/12/02 00:18:52;;;;;;;49.85;29.77;;;3.50;99.90;;;;;;4982843;28;89616;-33
2022/12/02 00:21:19;;;;;;;50.80;29.65;;;3.50;99.90;;;;;;4982931;28;88715;-32
2022/12/02 00:23:45;;;;;;;51.88;32.40;;;3.50;99.90;;;;;;4981827;28;87833;-34
2022/12/02 00:26:10;;;;;;;49.63;29.73;;;3.40;99.90;;;;;;4982306;28;91535;-34
2022/12/02 00:28:36;;;;;;;50.22;28.98;;;3.40;99.90;;;;;;4982177;28;89722;-33
2022/12/02 00:31:02;;;;;;;49.25;28.83;;;3.40;99.90;;;;;;4982998;28;87637;-34
2022/12/02 00:33:27;;;;;;;50.63;30.67;;;3.30;99.90;;;;;;4982021;28;88201;-33
2022/12/02 00:35:53;;;;;;;44.42;26.05;;;3.30;99.90;;;;;;4982431;28;90323;-34
2022/12/02 00:38:18;;;;;;;51.17;29.38;;;3.30;99.90;;;;;;4981845;28;89497;-33
2022/12/02 00:40:44;;;;;;;42.88;27.90;;;3.30;99.90;;;;;;4982514;28;88114;-33
2022/12/02 00:48:39;;;;;;;40.38;26.05;;;3.10;99.90;;;;;;4981855;28;89617;-32
2022/12/02 00:51:04;;;;;;;48.05;29.80;;;3.20;99.90;;;;;;4982245;28;87615;-33
2022/12/02 00:53:30;;;;;;;49.03;27.25;;;3.10;99.90;;;;;;4982458;28;89088;-34
2022/12/02 00:55:56;;;;;;;45.53;27.23;;;3.10;99.90;;;;;;4982732;28;89944;-33
2022/12/02 00:58:21;;;;;;;39.80;26.92;;;3.10;99.90;;;;;;4981494;28;89768;-33
2022/12/02 01:00:47;;;;;;;48.28;31.15;;;3.10;99.90;;;;;;4982171;28;89678;-32
2022/12/02 01:03:13;;;;;;;48.63;27.48;;;3.10;99.90;;;;;;4981818;28;88848;-32
2022/12/02 01:05:39;;;;;;;42.15;29.35;;;3.10;99.90;;;;;;4982261;28;90321;-34
2022/12/02 01:08:04;;;;;;;45.25;27.77;;;3.00;99.90;;;;;;4981913;28;91351;-31
2022/12/02 01:10:30;;;;;;;42.92;25.67;;;3.00;99.90;;;;;;4981922;28;88953;-33
2022/12/02 01:12:55;;;;;;;45.92;27.10;;;3.00;99.90;;;;;;4982119;28;88210;-32
2022/12/02 01:15:21;;;;;;;50.55;28.13;;;3.00;99.90;;;;;;4981488;28;90640;-31
2022/12/02 01:17:47;;;;;;;46.92;25.00;;;3.10;99.90;;;;;;4981595;28;89767;-34
2022/12/02 01:20:13;;;;;;;34.28;22.85;;;3.10;99.90;;;;;;4981034;28;89229;-34
2022/12/02 01:22:38;;;;;;;45.25;27.88;;;3.10;99.90;;;;;;4981666;28;89890;-33
2022/12/02 01:25:04;;;;;;;45.83;28.60;;;3.10;99.90;;;;;;4981505;28;90125;-31
2022/12/02 01:27:30;;;;;;;41.42;25.63;;;3.10;99.90;;;;;;4980643;28;88648;-34
2022/12/02 01:29:56;;;;;;;29.38;20.33;;;3.10;99.90;;;;;;4981988;28;90012;-33
2022/12/02 01:32:22;;;;;;;41.53;24.88;;;3.10;99.90;;;;;;4981738;28;88975;-32
2022/12/02 01:34:48;;;;;;;36.42;22.58;;;3.00;99.90;;;;;;4981412;28;89418;-31
2022/12/02 01:37:14;;;;;;;37.25;25.90;;;3.00;99.90;;;;;;4980990;28;88561;-34
2022/12/02 01:39:39;;;;;;;43.35;25.23;;;2.90;99.90;;;;;;4981019;28;88803;-32
2022/12/02 01:42:05;;;;;;;42.03;23.85;;;3.00;99.90;;;;;;4982240;28;88785;-32
2022/12/02 01:44:31;;;;;;;32.78;22.77;;;3.00;99.90;;;;;;4981444;28;91104;-34
2022/12/02 01:46:57;;;;;;;35.03;24.70;;;3.00;99.90;;;;;;4981048;28;89699;-34
2022/12/02 01:49:23;;;;;;;34.95;19.50;;;2.90;99.90;;;;;;4981300;28;90001;-34
2022/12/02 01:51:49;;;;;;;43.13;26.60;;;3.00;99.90;;;;;;4980746;28;87626;-31
2022/12/02 01:54:14;;;;;;;44.35;26.33;;;2.90;99.90;;;;;;4981559;28;90336;-35
2022/12/02 01:56:40;;;;;;;40.38;26.33;;;2.80;99.90;;;;;;4981003;28;89891;-34
2022/12/02 01:59:08;;;;;;;46.65;28.60;;;2.90;99.90;;;;;;4981972;28;88309;-32
2022/12/02 02:01:34;;;;;;;46.50;28.75;;;2.80;99.90;;;;;;4980799;28;89095;-34
2022/12/02 02:04:01;;;;;;;50.63;30.13;;;2.80;99.90;;;;;;4980805;28;90105;-32
2022/12/02 02:06:31;;;;;;;51.45;29.25;;;2.80;99.90;;;;;;4980618;28;90183;-33
2022/12/02 02:08:57;;;;;;;41.97;27.00;;;2.80;99.90;;;;;;4981148;28;88632;-33
2022/12/02 02:11:24;;;;;;;45.00;29.65;;;2.80;99.90;;;;;;4981392;28;88275;-32
2022/12/02 02:13:50;;;;;;;44.05;27.80;;;2.80;99.90;;;;;;4979135;28;90487;-33
2022/12/02 02:16:16;;;;;;;48.58;31.55;;;2.80;99.90;;;;;;4980821;28;90425;-32
2022/12/02 02:18:41;;;;;;;41.33;27.85;;;2.80;99.90;;;;;;4980865;28;89239;-32
2022/12/02 02:21:13;;;;;;;39.20;28.88;;;2.80;99.90;;;;;;4980636;28;87453;-33
2022/12/02 02:23:39;;;;;;;41.15;25.60;;;2.80;99.90;;;;;;4979963;28;90290;-34
2022/12/02 02:26:05;;;;;;;34.15;28.17;;;2.80;99.90;;;;;;4980811;28;90014;-34
2022/12/02 02:28:32;;;;;;;38.15;23.63;;;2.80;99.90;;;;;;4980291;28;88253;-33
2022/12/02 02:30:58;;;;;;;35.42;25.20;;;2.80;99.90;;;;;;4979515;28;89681;-34
2022/12/02 02:33:27;;;;;;;44.20;28.52;;;2.90;99.90;;;;;;4980221;28;90000;-32
2022/12/02 02:35:53;;;;;;;44.20;27.13;;;2.90;99.90;;;;;;4980793;28;90068;-33
2022/12/02 02:38:23;;;;;;;47.47;28.92;;;2.90;99.90;;;;;;4980608;28;90324;-33
2022/12/02 02:40:51;;;;;;;39.85;29.77;;;2.80;99.90;;;;;;4980892;28;88571;-32
2022/12/02 02:43:19;;;;;;;42.67;23.98;;;2.80;99.90;;;;;;4980060;28;90706;-33
2022/12/02 02:45:46;;;;;;;38.50;28.05;;;2.80;99.90;;;;;;4980054;28;89494;-30
2022/12/02 02:48:14;;;;;;;41.28;26.67;;;2.70;99.90;;;;;;4980967;28;87949;-33
2022/12/02 02:50:43;;;;;;;36.92;23.33;;;2.80;99.90;;;;;;4979950;28;87719;-32
2022/12/02 02:53:09;;;;;;;40.20;26.08;;;2.70;99.90;;;;;;4980661;28;89732;-33
2022/12/02 02:55:35;;;;;;;39.50;23.52;;;2.80;99.90;;;;;;4980531;28;89307;-33
2022/12/02 02:58:12;;;;;;;42.72;25.27;;;2.80;99.90;;;;;;4980332;28;87543;-32
2022/12/02 03:00:42;;;;;;;39.13;22.85;;;2.80;99.90;;;;;;4980049;28;88528;-33
2022/12/02 03:03:11;;;;;;;35.78;23.85;;;2.70;99.90;;;;;;4980940;28;90699;-33
2022/12/02 03:05:37;;;;;;;37.38;24.30;;;2.70;99.90;;;;;;4980143;28;89760;-31
2022/12/02 03:08:03;;;;;;;44.85;27.38;;;2.70;99.90;;;;;;4979698;28;88170;-33
2022/12/02 03:10:29;;;;;;;41.15;25.00;;;2.70;99.90;;;;;;4980298;28;89092;-35
2022/12/02 03:12:55;;;;;;;40.50;23.17;;;2.70;99.90;;;;;;4979840;28;90183;-32
2022/12/02 03:15:23;;;;;;;41.63;23.60;;;2.60;99.90;;;;;;4980295;28;89680;-31
2022/12/02 03:17:49;;;;;;;39.88;23.92;;;2.70;99.90;;;;;;4980254;28;87763;-31
2022/12/02 03:20:15;;;;;;;37.47;24.55;;;2.60;99.90;;;;;;4979809;28;88624;-33
2022/12/02 03:22:41;;;;;;;34.85;21.50;;;2.60;99.90;;;;;;4979550;28;89059;-31
2022/12/02 03:25:07;;;;;;;45.28;26.25;;;2.60;99.90;;;;;;4980353;28;89429;-31
2022/12/02 03:27:33;;;;;;;34.72;23.38;;;2.60;99.90;;;;;;4979263;28;89970;-34
2022/12/02 03:29:59;;;;;;;42.17;26.73;;;2.70;99.90;;;;;;4979391;28;89535;-33
2022/12/02 03:32:25;;;;;;;38.65;26.08;;;2.60;99.90;;;;;;4980341;28;90363;-32
2022/12/02 03:34:51;;;;;;;46.53;28.80;;;2.60;99.90;;;;;;4979507;28;89809;-34
2022/12/02 03:37:18;;;;;;;48.17;26.42;;;2.50;99.90;;;;;;4980036;28;87577;-32
2022/12/02 03:39:43;;;;;;;48.72;28.67;;;2.60;99.90;;;;;;4980067;28;88680;-32
2022/12/02 03:42:09;;;;;;;46.05;28.60;;;2.60;99.90;;;;;;4979045;28;88990;-31
2022/12/02 03:44:36;;;;;;;46.42;30.23;;;2.50;99.90;;;;;;4979508;28;89899;-34
2022/12/02 03:47:02;;;;;;;41.55;26.73;;;2.50;99.90;;;;;;4978980;28;87999;-34
2022/12/02 03:49:28;;;;;;;44.58;28.25;;;2.50;99.90;;;;;;4979756;28;88176;-33
2022/12/02 03:51:54;;;;;;;60.55;31.05;;;2.50;99.90;;;;;;4979837;28;90048;-32
2022/12/02 03:54:20;;;;;;;42.28;27.63;;;2.50;99.90;;;;;;4979360;28;89941;-32
2022/12/02 03:56:45;;;;;;;49.55;29.20;;;2.60;99.90;;;;;;4979946;28;89319;-34
2022/12/02 03:59:22;;;;;;;49.35;29.45;;;2.60;99.90;;;;;;4979093;28;87667;-33
2022/12/02 04:01:48;;;;;;;52.80;30.05;;;2.60;99.90;;;;;;4979266;28;90586;-32
2022/12/02 04:04:13;;;;;;;46.58;30.77;;;2.60;99.90;;;;;;4979750;28;89709;-34
2022/12/02 04:06:40;;;;;;;44.83;29.30;;;2.50;99.90;;;;;;4978329;28;87577;-34
2022/12/02 04:09:05;;;;;;;54.90;31.23;;;2.50;99.90;;;;;;4979090;28;88826;-33
2022/12/02 04:11:31;;;;;;;52.38;31.75;;;2.50;99.90;;;;;;4979344;28;88821;-34
2022/12/02 04:13:56;;;;;;;57.20;31.50;;;2.50;99.90;;;;;;4978993;28;90041;-33
2022/12/02 04:16:22;;;;;;;51.88;33.13;;;2.40;99.90;;;;;;4979766;28;89582;-31
2022/12/02 04:18:47;;;;;;;47.75;30.48;;;2.40;99.90;;;;;;4978458;28;88885;-32
2022/12/02 04:21:13;;;;;;;52.67;31.17;;;2.40;99.90;;;;;;4979675;28;88903;-34
2022/12/02 04:23:39;;;;;;;49.72;31.50;;;2.50;99.90;;;;;;4978601;28;89759;-34
2022/12/02 04:26:04;;;;;;;56.55;31.80;;;2.40;99.90;;;;;;4979955;28;89048;-33
2022/12/02 04:28:30;;;;;;;48.17;28.75;;;2.40;99.90;;;;;;4978829;28;88836;-32
2022/12/02 04:30:56;;;;;;;53.85;32.03;;;2.40;99.90;;;;;;4978986;28;90274;-32
2022/12/02 04:33:21;;;;;;;48.08;28.98;;;2.40;99.90;;;;;;4979512;28;89684;-34
2022/12/02 04:35:47;;;;;;;55.83;27.58;;;2.40;99.90;;;;;;4977930;28;89409;-31
2022/12/02 04:38:12;;;;;;;42.17;26.02;;;2.40;99.90;;;;;;4979570;28;87843;-33
2022/12/02 04:40:38;;;;;;;51.08;30.73;;;2.40;99.90;;;;;;4978085;28;90438;-35
2022/12/02 04:43:04;;;;;;;51.55;30.05;;;2.50;99.90;;;;;;4979406;28;89837;-33
2022/12/02 04:45:29;;;;;;;50.53;29.77;;;2.40;99.90;;;;;;4979222;28;89703;-31
2022/12/02 04:47:55;;;;;;;47.50;29.92;;;2.40;99.90;;;;;;4978492;28;88234;-31
2022/12/02 04:50:21;;;;;;;50.03;28.83;;;2.40;99.90;;;;;;4979052;28;89001;-33
2022/12/02 04:52:46;;;;;;;52.38;29.17;;;2.40;99.90;;;;;;4978151;28;89650;-34
2022/12/02 04:55:12;;;;;;;46.15;30.35;;;2.40;99.90;;;;;;4981040;28;88671;-33
2022/12/02 04:57:37;;;;;;;47.33;30.05;;;2.50;99.90;;;;;;4981599;28;88011;-31
2022/12/02 05:00:04;;;;;;;46.53;28.95;;;2.50;99.90;;;;;;4982512;28;90306;-33
2022/12/02 05:02:30;;;;;;;49.55;27.58;;;2.50;99.90;;;;;;4982493;28;90251;-32
2022/12/02 05:04:56;;;;;;;49.53;29.27;;;2.50;99.90;;;;;;4981894;28;87619;-32
2022/12/02 05:07:22;;;;;;;51.22;28.80;;;2.40;99.90;;;;;;4981950;28;89184;-32
2022/12/02 05:09:47;;;;;;;50.10;30.38;;;2.40;99.90;;;;;;4981681;28;90411;-31
2022/12/02 05:12:13;;;;;;;54.08;31.95;;;2.30;99.90;;;;;;4982511;28;88517;-32
2022/12/02 05:14:38;;;;;;;53.40;31.30;;;2.30;99.90;;;;;;4982222;28;87814;-33
2022/12/02 05:17:04;;;;;;;55.00;31.98;;;2.30;99.90;;;;;;4981726;28;89703;-32
2022/12/02 05:19:30;;;;;;;48.90;29.52;;;2.30;99.90;;;;;;4981619;28;89936;-32
2022/12/02 05:21:55;;;;;;;54.67;31.88;;;2.30;99.90;;;;;;4981814;28;89742;-31
2022/12/02 05:24:21;;;;;;;50.13;31.77;;;2.30;99.90;;;;;;4982151;28;88363;-32
2022/12/02 05:26:46;;;;;;;42.45;28.85;;;2.20;99.90;;;;;;4982048;28;88626;-33
2022/12/02 05:29:12;;;;;;;51.05;32.10;;;2.20;99.90;;;;;;4981563;28;89398;-30
2022/12/02 05:31:37;;;;;;;52.58;29.95;;;2.20;99.90;;;;;;4981431;28;89895;-32
2022/12/02 05:34:03;;;;;;;58.95;32.78;;;2.20;99.90;;;;;;4981683;28;87887;-31
2022/12/02 05:36:28;;;;;;;65.30;34.78;;;2.10;99.90;;;;;;4981807;28;88177;-32
2022/12/02 05:38:54;;;;;;;54.50;31.92;;;2.10;99.90;;;;;;4981230;28;90343;-32
2022/12/02 05:41:20;;;;;;;58.78;35.13;;;2.10;99.90;;;;;;4981992;28;89769;-31
2022/12/02 05:43:45;;;;;;;60.53;34.00;;;2.10;99.90;;;;;;4980836;28;88703;-32
2022/12/02 05:46:18;;;;;;;62.42;35.45;;;2.10;99.90;;;;;;4981901;28;89526;-33
2022/12/02 05:48:45;;;;;;;64.35;37.50;;;2.10;99.90;;;;;;4980788;28;90137;-34
2022/12/02 05:51:19;;;;;;;54.70;33.83;;;2.10;99.90;;;;;;4982243;28;89950;-32
2022/12/02 05:53:47;;;;;;;59.03;36.25;;;2.10;99.90;;;;;;4981346;28;89170;-31
2022/12/02 05:56:24;;;;;;;61.40;36.77;;;2.10;99.90;;;;;;4981217;28;89956;-33
2022/12/02 05:58:50;;;;;;;63.00;38.67;;;2.10;99.90;;;;;;4981152;28;88979;-32
2022/12/02 06:01:32;;;;;;;60.17;38.35;;;2.10;99.90;;;;;;4982110;28;90533;-32
2022/12/02 06:03:58;;;;;;;49.65;35.75;;;2.10;99.90;;;;;;4981111;28;88735;-33
2022/12/02 06:06:28;;;;;;;63.60;38.80;;;2.10;99.90;;;;;;4981401;28;88096;-34
2022/12/02 06:08:55;;;;;;;64.35;35.10;;;2.10;99.90;;;;;;4981160;28;91030;-33
2022/12/02 06:11:32;;;;;;;75.00;36.45;;;2.10;99.90;;;;;;4981364;28;91276;-32
2022/12/02 06:14:05;;;;;;;60.88;37.13;;;2.00;99.90;;;;;;4981394;28;88124;-32
2022/12/02 06:16:31;;;;;;;59.80;35.95;;;2.10;99.90;;;;;;4981336;28;90180;-33
2022/12/02 06:19:03;;;;;;;65.35;35.17;;;2.10;99.90;;;;;;4980386;28;90014;-34
2022/12/02 06:21:29;;;;;;;59.75;38.05;;;2.10;99.90;;;;;;4980864;28;89178;-33
2022/12/02 06:23:57;;;;;;;64.70;37.58;;;2.10;99.90;;;;;;4980358;28;87632;-31
2022/12/02 06:26:23;;;;;;;59.23;38.07;;;2.10;99.90;;;;;;4981270;28;89347;-34
2022/12/02 06:28:55;;;;;;;61.20;37.97;;;2.00;99.90;;;;;;4980621;28;91136;-30
2022/12/02 06:31:27;;;;;;;57.42;35.10;;;2.10;99.90;;;;;;4980806;28;89585;-31
2022/12/02 06:33:56;;;;;;;59.20;36.58;;;2.00;99.90;;;;;;4981088;28;88372;-33
2022/12/02 06:36:25;;;;;;;65.40;36.83;;;2.00;99.90;;;;;;4981050;28;89429;-34
2022/12/02 06:38:58;;;;;;;60.88;34.88;;;2.10;99.90;;;;;;4980534;28;90257;-33
2022/12/02 06:41:27;;;;;;;50.92;31.67;;;2.10;99.90;;;;;;4980125;28;90707;-33
2022/12/02 06:46:43;;;;;;;60.60;37.05;;;2.10;99.90;;;;;;4980449;28;87563;-33
2022/12/02 06:49:19;;;;;;;75.63;38.42;;;2.10;99.90;;;;;;4980745;28;90566;-31
2022/12/02 06:51:46;;;;;;;59.38;35.47;;;2.10;99.90;;;;;;4980889;28;89832;-34
2022/12/02 06:54:19;;;;;;;57.28;33.03;;;2.00;99.90;;;;;;4979935;28;87625;-34
2022/12/02 06:56:46;;;;;;;57.13;38.50;;;2.00;99.90;;;;;;4980349;28;87916;-33
2022/12/02 06:59:14;;;;;;;61.92;36.83;;;2.10;99.90;;;;;;4980466;28;90510;-34
2022/12/02 07:01:42;;;;;;;67.07;37.97;;;2.00;99.90;;;;;;4980217;28;89413;-35
2022/12/02 07:04:07;;;;;;;64.70;37.42;;;2.10;99.90;;;;;;4979899;28;88870;-34
2022/12/02 07:06:38;;;;;;;63.35;37.17;;;2.10;99.90;;;;;;4980450;28;88286;-33
2022/12/02 07:09:31;;;;;;;65.93;37.72;;;2.10;99.90;;;;;;4980210;28;90373;-30
2022/12/02 07:11:58;;;;;;;64.43;37.25;;;2.20;99.90;;;;;;4979709;28;90037;-32
2022/12/02 07:14:41;;;;;;;61.85;33.58;;;2.20;99.90;;;;;;4979611;28;88764;-33
2022/12/02 07:17:31;;;;;;;63.28;36.47;;;2.20;99.90;;;;;;4979800;28;88636;-33
2022/12/02 07:20:05;;;;;;;54.13;32.95;;;2.20;99.90;;;;;;4980414;28;89755;-33
2022/12/02 07:22:44;;;;;;;62.95;34.72;;;2.20;99.90;;;;;;4979211;28;89654;-33
2022/12/02 07:25:36;;;;;;;62.97;38.97;;;2.20;99.90;;;;;;4980183;28;87650;-32
2022/12/02 07:28:28;;;;;;;61.08;34.53;;;2.20;99.90;;;;;;4979228;28;88189;-32
2022/12/02 07:31:20;;;;;;;65.32;36.72;;;2.20;99.90;;;;;;4962805;28;90314;-34
2022/12/02 07:33:46;;;;;;;57.35;30.50;;;2.30;99.90;;;;;;4965224;28;89725;-34
2022/12/02 07:36:11;;;;;;;63.70;35.17;;;2.30;99.90;;;;;;4979581;28;88697;-33
2022/12/02 07:38:37;;;;;;;59.63;40.50;;;2.30;99.90;;;;;;4979827;28;89715;-32
2022/12/02 07:41:04;;;;;;;56.75;33.40;;;2.30;99.90;;;;;;4979618;28;90353;-32
2022/12/02 07:43:30;;;;;;;65.00;36.88;;;2.30;99.90;;;;;;4966856;28;88680;-32
2022/12/02 07:45:56;;;;;;;63.25;35.63;;;2.30;99.90;;;;;;4967141;28;89334;-34
2022/12/02 07:48:21;;;;;;;62.03;34.65;;;2.30;99.90;;;;;;4979910;28;87581;-34
2022/12/02 07:50:47;;;;;;;67.80;40.33;;;2.40;99.90;;;;;;4972057;28;91815;-33
2022/12/02 07:53:13;;;;;;;56.67;34.47;;;2.30;99.90;;;;;;4977894;28;89368;-32
2022/12/02 07:55:38;;;;;;;50.78;33.17;;;2.40;99.90;;;;;;4980365;28;88352;-34
2022/12/02 07:58:04;;;;;;;69.57;39.95;;;2.30;99.90;;;;;;4979281;28;88260;-32
2022/12/02 08:00:30;;;;;;;65.95;36.72;;;2.40;99.90;;;;;;4978351;28;90394;-31
2022/12/02 08:02:55;;;;;;;66.20;37.35;;;2.40;99.90;;;;;;4979320;28;91118;-33
2022/12/02 08:05:22;;;;;;;59.78;32.80;;;2.40;99.90;;;;;;4979840;28;88668;-31
2022/12/02 08:07:48;;;;;;;62.95;33.17;;;2.40;99.90;;;;;;4986888;28;87962;-34
2022/12/02 08:10:13;;;;;;;57.10;34.70;;;2.40;99.90;;;;;;4978968;28;90094;-33
2022/12/02 08:12:39;;;;;;;71.45;37.30;;;2.50;99.90;;;;;;4979217;28;89552;-34
2022/12/02 08:15:10;;;;;;;74.13;34.83;;;2.50;99.90;;;;;;4979772;28;88432;-32
2022/12/02 08:17:36;;;;;;;71.03;39.15;;;2.50;99.90;;;;;;4979892;28;89644;-31
2022/12/02 08:20:08;;;;;;;71.35;38.10;;;2.40;99.90;;;;;;4979042;28;90155;-33
2022/12/02 08:22:33;;;;;;;55.47;34.88;;;2.40;99.90;;;;;;4979221;28;91042;-31
2022/12/02 08:24:59;;;;;;;64.35;35.67;;;2.40;99.90;;;;;;4979065;28;87615;-33
2022/12/02 08:27:25;;;;;;;63.58;34.70;;;2.40;99.90;;;;;;4979821;28;89343;-31
2022/12/02 08:29:51;;;;;;;71.93;38.47;;;2.50;99.90;;;;;;4978412;28;90260;-34
2022/12/02 08:32:17;;;;;;;60.83;33.00;;;2.50;99.90;;;;;;4981311;28;89204;-34
2022/12/02 08:34:43;;;;;;;68.88;36.15;;;2.40;99.90;;;;;;4980808;28;88012;-35
2022/12/02 08:37:10;;;;;;;64.72;35.53;;;2.50;99.90;;;;;;4981612;28;89686;-33
2022/12/02 08:39:35;;;;;;;72.40;36.83;;;2.60;99.90;;;;;;4987738;28;90108;-33
2022/12/02 08:42:01;;;;;;;54.90;32.28;;;2.50;99.90;;;;;;4985642;28;89492;-32
2022/12/02 08:44:27;;;;;;;63.55;35.65;;;2.60;99.90;;;;;;4986921;28;88494;-34
2022/12/02 08:46:52;;;;;;;71.68;36.40;;;2.50;99.90;;;;;;4984208;28;88910;-33
2022/12/02 08:49:18;;;;;;;58.15;33.20;;;2.50;99.90;;;;;;4981204;28;90151;-34
2022/12/02 08:51:44;;;;;;;59.60;34.60;;;2.60;99.90;;;;;;4984764;28;88621;-33
2022/12/02 08:54:09;;;;;;;67.18;37.78;;;2.60;99.90;;;;;;4983128;28;88328;-31
2022/12/02 08:56:35;;;;;;;69.95;37.50;;;2.60;99.90;;;;;;4980565;28;89277;-33
2022/12/02 08:59:01;;;;;;;71.68;37.40;;;2.60;99.90;;;;;;4981075;28;90239;-34
2022/12/02 09:01:27;;;;;;;54.13;31.13;;;2.60;99.90;;;;;;4984031;28;89393;-35
2022/12/02 09:03:52;;;;;;;61.42;31.55;;;2.60;99.90;;;;;;4972045;28;88618;-31
2022/12/02 09:06:18;;;;;;;59.83;32.33;;;2.60;99.90;;;;;;4983926;28;88080;-33
2022/12/02 09:08:44;;;;;;;59.58;31.98;;;2.60;99.90;;;;;;4981257;28;90067;-33
2022/12/02 09:11:09;;;;;;;69.65;35.30;;;2.60;99.90;;;;;;4982518;28;89853;-34
2022/12/02 09:13:35;;;;;;;68.40;36.33;;;2.60;99.90;;;;;;4981745;28;89665;-31
2022/12/02 09:16:00;;;;;;;64.35;35.90;;;2.60;99.90;;;;;;4980691;28;87604;-33
2022/12/02 09:21:02;;;;;;;67.22;30.45;;;2.50;99.90;;;;;;4988658;28;89182;-32
2022/12/02 09:23:28;;;;;;;73.93;39.83;;;2.50;99.90;;;;;;4980675;28;89925;-32
2022/12/02 09:25:54;;;;;;;78.00;39.28;;;2.40;99.90;;;;;;4980511;28;87732;-31
2022/12/02 09:28:21;;;;;;;68.53;36.20;;;2.40;99.90;;;;;;4980514;28;91888;-32
2022/12/02 09:30:47;;;;;;;72.55;36.05;;;2.40;99.90;;;;;;4965650;28;89897;-33
2022/12/02 09:33:12;;;;;;;78.28;37.78;;;2.40;99.90;;;;;;4981661;28;88540;-33
2022/12/02 09:35:38;;;;;;;76.55;41.55;;;2.30;99.90;;;;;;4981325;28;89130;-31
2022/12/02 09:38:03;;;;;;;72.18;40.97;;;2.30;99.90;;;;;;4982317;28;89210;-35
2022/12/02 09:40:31;;;;;;;83.82;41.70;;;2.30;99.90;;;;;;4981724;28;89559;-31
2022/12/02 09:42:57;;;;;;;86.27;40.77;;;2.30;99.90;;;;;;4981547;28;89418;-35
2022/12/02 09:45:22;;;;;;;61.92;32.63;;;2.30;99.90;;;;;;4981566;28;88419;-35
2022/12/02 09:47:48;;;;;;;60.13;33.88;;;2.40;99.90;;;;;;4981202;28;92496;-32
2022/12/02 09:50:14;;;;;;;63.72;31.25;;;2.40;99.90;;;;;;4981607;28;89907;-33
2022/12/02 09:52:40;;;;;;;70.55;36.95;;;2.40;99.90;;;;;;4982468;28;87588;-31
2022/12/02 09:55:12;;;;;;;65.60;33.40;;;2.40;99.90;;;;;;4981651;28;89242;-31
2022/12/02 09:57:38;;;;;;;64.43;31.75;;;2.40;99.90;;;;;;4981208;28;90019;-32
2022/12/02 10:00:14;;;;;;;49.53;29.10;;;2.40;99.90;;;;;;4980991;28;89815;-33
2022/12/02 10:02:45;;;;;;;74.43;32.85;;;2.40;99.90;;;;;;4981185;28;87597;-32
2022/12/02 10:05:21;;;;;;;56.00;31.27;;;2.50;99.90;;;;;;4982056;28;88352;-35
2022/12/02 10:07:49;;;;;;;57.47;32.22;;;2.50;99.90;;;;;;4981077;28;90496;-33
2022/12/02 10:10:19;;;;;;;52.47;28.45;;;2.40;99.90;;;;;;4981192;28;90727;-33
2022/12/02 10:12:45;;;;;;;52.33;31.88;;;2.40;99.90;;;;;;4981480;28;87916;-32
2022/12/02 10:15:13;;;;;;;51.40;27.42;;;2.40;99.90;;;;;;4981081;28;90072;-35
2022/12/02 10:17:41;;;;;;;49.65;28.00;;;2.40;99.90;;;;;;4980883;28;90360;-33
2022/12/02 10:20:13;;;;;;;41.60;25.35;;;2.40;99.90;;;;;;4980623;28;89511;-34
2022/12/02 10:23:13;;;;;;;45.03;25.65;;;2.40;99.90;;;;;;4980959;28;87879;-33
2022/12/02 10:25:41;;;;;;;42.85;23.17;;;2.50;99.90;;;;;;4981350;28;89355;-31
2022/12/02 10:28:31;;;;;;;45.42;26.15;;;2.40;99.90;;;;;;4980581;28;90324;-35
2022/12/02 10:31:12;;;;;;;43.55;23.45;;;2.40;99.90;;;;;;4972261;28;90815;-33
2022/12/02 10:33:49;;;;;;;48.85;27.42;;;2.30;99.90;;;;;;4980863;28;88200;-32
2022/12/02 10:36:38;;;;;;;51.50;28.35;;;2.40;99.90;;;;;;4980632;28;87467;-33
2022/12/02 10:39:24;;;;;;;63.45;28.73;;;2.30;99.90;;;;;;4966663;28;90502;-32
2022/12/02 10:42:07;;;;;;;51.65;29.75;;;2.30;99.90;;;;;;4994540;28;90151;-32
2022/12/02 10:44:39;;;;;;;53.08;28.88;;;2.30;99.90;;;;;;4980899;28;88835;-32
2022/12/02 10:47:18;;;;;;;59.90;32.42;;;2.30;99.90;;;;;;4980886;28;89465;-31
2022/12/02 10:49:57;;;;;;;54.80;33.95;;;2.30;99.90;;;;;;4980848;28;89896;-32
2022/12/02 10:52:31;;;;;;;70.35;37.20;;;2.40;99.90;;;;;;4980176;28;89497;-34
2022/12/02 10:54:57;;;;;;;61.80;33.83;;;2.40;99.90;;;;;;4980126;28;88572;-34
2022/12/02 10:57:29;;;;;;;54.25;31.33;;;2.40;99.90;;;;;;4980773;28;89364;-36
2022/12/02 10:59:56;;;;;;;65.80;34.65;;;2.40;99.90;;;;;;4980280;28;89169;-33
2022/12/02 11:02:23;;;;;;;66.85;36.38;;;2.50;99.90;;;;;;4980811;28;89643;-32
2022/12/02 11:04:49;;;;;;;64.25;34.08;;;2.50;99.90;;;;;;4980184;28;88551;-30
2022/12/02 11:07:16;;;;;;;68.30;37.55;;;2.50;99.90;;;;;;4979969;28;89534;-34
2022/12/02 11:09:53;;;;;;;78.32;37.88;;;2.40;99.90;;;;;;4980527;28;90637;-31
2022/12/02 11:12:56;;;;;;;68.70;36.72;;;2.40;99.90;;;;;;4980408;28;88852;-32
2022/12/02 11:15:35;;;;;;;77.32;39.50;;;2.50;99.90;;;;;;4971056;28;87968;-31
2022/12/02 11:18:02;;;;;;;66.53;35.63;;;2.50;99.90;;;;;;4979909;28;87815;-33
2022/12/02 11:20:35;;;;;;;67.80;38.58;;;2.50;99.90;;;;;;4980252;28;90411;-32
2022/12/02 11:23:19;;;;;;;67.45;43.38;;;2.50;99.90;;;;;;4980116;28;90345;-34
2022/12/02 11:25:46;;;;;;;71.90;35.78;;;2.50;99.90;;;;;;4979934;28;89679;-34
2022/12/02 11:28:27;;;;;;;73.25;42.00;;;2.50;99.90;;;;;;4980589;28;88828;-31
2022/12/02 11:31:11;;;;;;;69.25;34.75;;;2.50;99.90;;;;;;4980174;28;90539;-33
2022/12/02 11:33:42;;;;;;;81.72;40.70;;;2.50;99.90;;;;;;4979617;28;89464;-30
2022/12/02 11:36:08;;;;;;;79.32;42.80;;;2.50;99.90;;;;;;4980105;28;87556;-31
2022/12/02 11:38:51;;;;;;;61.75;38.97;;;2.50;99.90;;;;;;4979925;28;88740;-32
2022/12/02 11:41:19;;;;;;;75.53;44.25;;;2.50;99.90;;;;;;4980396;28;90553;-31
2022/12/02 11:43:45;;;;;;;69.57;41.25;;;2.40;99.90;;;;;;4979913;28;89813;-32
2022/12/02 11:46:14;;;;;;;71.07;41.83;;;2.50;99.90;;;;;;4980042;28;89244;-33
2022/12/02 11:48:51;;;;;;;73.78;39.55;;;2.60;99.90;;;;;;4979583;28;88657;-34
2022/12/02 11:51:40;;;;;;;67.22;38.80;;;2.60;99.90;;;;;;4980355;28;89603;-33
2022/12/02 11:54:13;;;;;;;74.97;44.22;;;2.60;99.90;;;;;;4980348;28;89657;-35
2022/12/02 11:56:41;;;;;;;66.65;39.38;;;2.50;99.90;;;;;;4979835;28;88552;-33
2022/12/02 11:59:23;;;;;;;58.85;34.38;;;2.50;99.90;;;;;;4979918;28;88928;-31
2022/12/02 12:01:49;;;;;;;69.25;37.05;;;2.60;99.90;;;;;;4979319;28;90124;-32
2022/12/02 12:04:27;;;;;;;78.03;44.92;;;2.60;99.90;;;;;;4981531;28;89617;-34
2022/12/02 12:06:54;;;;;;;;;;;2.60;99.90;;;;;;4984162;28;88760;-31
2022/12/02 12:09:20;;;;;;;64.75;36.53;;;2.60;99.90;;;;;;4986042;28;88144;-31
2022/12/02 12:12:10;;;;;;;58.20;33.97;;;2.50;99.90;;;;;;4982527;28;90296;-31
2022/12/02 12:15:02;;;;;;;59.50;36.17;;;2.50;99.90;;;;;;4982395;28;89528;-34
2022/12/02 12:17:37;;;;;;;64.45;38.20;;;2.60;99.90;;;;;;4983140;28;87694;-33
2022/12/02 12:20:04;;;;;;;73.13;39.47;;;2.60;99.90;;;;;;4982946;28;88737;-31
2022/12/02 12:22:30;;;;;;;67.65;36.35;;;2.60;99.90;;;;;;4982587;28;90687;-35
2022/12/02 12:25:32;;;;;;;66.03;36.47;;;2.60;99.90;;;;;;4983066;28;89854;-34
2022/12/02 12:27:58;;;;;;;68.65;40.42;;;2.60;99.90;;;;;;4982451;28;87684;-32
2022/12/02 12:30:24;;;;;;;64.68;39.97;;;2.60;99.90;;;;;;4982882;28;90024;-33
2022/12/02 12:32:49;;;;;;;64.95;43.20;;;2.60;99.90;;;;;;4983277;28;89380;-32
2022/12/02 12:35:15;;;;;;;65.65;43.70;;;2.50;99.90;;;;;;4982417;28;88729;-34
2022/12/02 12:37:40;;;;;;;67.05;39.38;;;2.60;99.90;;;;;;4982729;28;87970;-32
2022/12/02 12:40:06;;;;;;;67.15;40.92;;;2.60;99.90;;;;;;4982911;28;89997;-31
2022/12/02 12:42:32;;;;;;;60.30;38.00;;;2.50;99.90;;;;;;4982643;28;90342;-33
2022/12/02 12:44:57;;;;;;;67.53;42.08;;;2.60;99.90;;;;;;4982851;28;89261;-32
2022/12/02 12:47:23;;;;;;;70.63;42.58;;;2.60;99.90;;;;;;4982916;28;89156;-36
2022/12/02 12:49:49;;;;;;;79.90;45.92;;;2.60;99.90;;;;;;4963913;28;88269;-31
2022/12/02 12:52:14;;;;;;;65.22;38.05;;;2.60;99.90;;;;;;4982337;28;90223;-34
2022/12/02 12:54:40;;;;;;;70.63;38.63;;;2.60;99.90;;;;;;4982143;28;89266;-33
2022/12/02 12:57:05;;;;;;;74.40;41.55;;;2.50;99.90;;;;;;4982756;28;89950;-35